MMTM/TAM METAR and TAF weather

Enter ICAO airport designator
Station Type Date Time Source
MMTM METAR 2020/01/17 21:58 UTC NOAA

MMTM 172158Z RTD E10012KT 8SM BKN200 25/20 A3005 RMK 8/008 DSNT TCU E


Station Type Date Time Source
MMTM Decoded METAR 2020/01/17 21:58 UTC NOAA

Tampico / Gen Fj Mina, Mexico (MMTM) 22-17N 097-52W
Jan 17, 2020 - 04:58 PM EST / 2020.01.17 2158 UTC
Visibility: 8 mile(s):0
Sky conditions: mostly cloudy
Weather: Towering cumulus clouds observed
Temperature: 77 F (25 C)
Dew Point: 68 F (20 C)
Relative Humidity: 73%
Pressure (altimeter): 30.05 in. Hg (1017 hPa)
ob: MMTM 172158Z RTD E10012KT 8SM BKN200 25/20 A3005 RMK 8/008 DSNT TCU E
cycle: 22

Station Type Date Time Source
MMTM TAF 2020/01/17 18:45 UTC NOAA

TAF MMTM 171641Z 1718/1818 30008KT 5SM HZ SCT015
FM180300 00000KT 5SM HZ BKN015
FM180900 34010KT 3SM DZ BR OVC005
TEMPO 1812/1816 1SM DZ BR OVC003

Example: see airport list